VLG115 LFPO-EHAM
Flight info
| Callsign | VLG115 |
|---|---|
| Flight time | N/A |
| Altitude | 28000 |
| Route | NURMO DCT CMB DCT VEKIN DCT ADUTO N873 FERDI Y18 DENUT |
| Aircraft | A321/M-SDE3FGHIRWY/LB1 |
Departure
| Time | 2026-05-06 19:53 |
|---|---|
| Airport | Paris-Orly Airport (LFPO) |
Arrival
| Time | N/A |
|---|---|
| Airport | Amsterdam Airport Schiphol (EHAM) |
| Time | Latitude | Longitude | Altitude | Speed | Heading |
|---|---|---|---|---|---|
| 2026-05-06 19:21 | 48.72612 | 2.36365 | 307 ft | 0 kts | 348° |
| 2026-05-06 19:43 | 48.72605 | 2.36367 | 301 ft | 4 kts | 343° |
| 2026-05-06 19:43 | 48.72588 | 2.36385 | 306 ft | 4 kts | 281° |
| 2026-05-06 19:43 | 48.72583 | 2.36407 | 303 ft | 2 kts | 344° |
| 2026-05-06 19:44 | 48.72561 | 2.36420 | 305 ft | 4 kts | 320° |
| 2026-05-06 19:44 | 48.72548 | 2.36449 | 305 ft | 4 kts | 266° |
| 2026-05-06 19:44 | 48.72553 | 2.36485 | 305 ft | 2 kts | 255° |
| 2026-05-06 19:44 | 48.72554 | 2.36488 | 305 ft | 0 kts | 255° |
| 2026-05-06 19:47 | 48.72553 | 2.36484 | 305 ft | 1 kts | 255° |
| 2026-05-06 19:47 | 48.72548 | 2.36458 | 305 ft | 4 kts | 255° |
| 2026-05-06 19:47 | 48.72538 | 2.36404 | 301 ft | 7 kts | 255° |
| 2026-05-06 19:47 | 48.72524 | 2.36326 | 300 ft | 9 kts | 255° |
| 2026-05-06 19:48 | 48.72507 | 2.36229 | 302 ft | 10 kts | 255° |
| 2026-05-06 19:48 | 48.72486 | 2.36114 | 304 ft | 12 kts | 255° |
| 2026-05-06 19:48 | 48.72468 | 2.35983 | 300 ft | 13 kts | 268° |
| 2026-05-06 19:48 | 48.72476 | 2.35836 | 305 ft | 15 kts | 275° |
| 2026-05-06 19:49 | 48.72460 | 2.35676 | 302 ft | 16 kts | 259° |
| 2026-05-06 19:49 | 48.72527 | 2.35568 | 303 ft | 16 kts | 348° |
| 2026-05-06 19:49 | 48.72639 | 2.35522 | 303 ft | 17 kts | 344° |
| 2026-05-06 19:49 | 48.72757 | 2.35472 | 301 ft | 18 kts | 345° |
| 2026-05-06 19:50 | 48.72871 | 2.35416 | 305 ft | 16 kts | 325° |
| 2026-05-06 19:50 | 48.72951 | 2.35353 | 300 ft | 13 kts | 11° |
| 2026-05-06 19:50 | 48.73038 | 2.35417 | 304 ft | 15 kts | 43° |
| 2026-05-06 19:50 | 48.73098 | 2.35551 | 304 ft | 16 kts | 54° |
| 2026-05-06 19:51 | 48.73193 | 2.35640 | 303 ft | 17 kts | 45° |
| 2026-05-06 19:51 | 48.73250 | 2.35803 | 303 ft | 18 kts | 63° |
| 2026-05-06 19:51 | 48.73313 | 2.35973 | 304 ft | 19 kts | 60° |
| 2026-05-06 19:51 | 48.73401 | 2.36095 | 301 ft | 18 kts | 13° |
| 2026-05-06 19:52 | 48.73509 | 2.36042 | 303 ft | 13 kts | 317° |
| 2026-05-06 19:52 | 48.73497 | 2.35931 | 301 ft | 8 kts | 242° |
| 2026-05-06 19:52 | 48.73483 | 2.35892 | 301 ft | 14 kts | 241° |
| 2026-05-06 19:52 | 48.73304 | 2.35379 | 303 ft | 94 kts | 242° |
| 2026-05-06 19:53 | 48.72880 | 2.34188 | 302 ft | 157 kts | 242° |
| 2026-05-06 19:53 | 48.72324 | 2.32635 | 691 ft | 173 kts | 244° |
| 2026-05-06 19:53 | 48.71699 | 2.31027 | 1426 ft | 176 kts | 242° |
| 2026-05-06 19:53 | 48.71039 | 2.29412 | 1949 ft | 189 kts | 242° |
| 2026-05-06 19:54 | 48.70304 | 2.27657 | 2328 ft | 207 kts | 241° |
| 2026-05-06 19:54 | 48.69467 | 2.25706 | 2565 ft | 236 kts | 239° |
| 2026-05-06 19:54 | 48.68522 | 2.23555 | 3078 ft | 254 kts | 238° |
| 2026-05-06 19:54 | 48.67501 | 2.21279 | 3737 ft | 265 kts | 237° |
| 2026-05-06 19:55 | 48.66524 | 2.18905 | 4584 ft | 268 kts | 245° |
| 2026-05-06 19:55 | 48.65683 | 2.16375 | 5437 ft | 271 kts | 243° |
| 2026-05-06 19:55 | 48.64787 | 2.13855 | 6321 ft | 272 kts | 244° |
| 2026-05-06 19:55 | 48.63955 | 2.11269 | 7143 ft | 275 kts | 246° |
| 2026-05-06 19:56 | 48.63161 | 2.08624 | 7934 ft | 278 kts | 251° |
| 2026-05-06 19:56 | 48.62868 | 2.05761 | 8660 ft | 279 kts | 277° |
| 2026-05-06 19:56 | 48.63416 | 2.02960 | 9425 ft | 280 kts | 301° |
| 2026-05-06 19:56 | 48.64518 | 2.00492 | 9840 ft | 285 kts | 306° |
| 2026-05-06 19:57 | 48.65669 | 1.98037 | 10039 ft | 289 kts | 306° |
| 2026-05-06 19:57 | 48.66877 | 1.95456 | 10247 ft | 313 kts | 306° |
| 2026-05-06 19:57 | 48.68171 | 1.92682 | 10446 ft | 330 kts | 306° |
| 2026-05-06 19:57 | 48.69500 | 1.89816 | 10641 ft | 333 kts | 306° |
| 2026-05-06 19:58 | 48.70828 | 1.86936 | 10830 ft | 335 kts | 306° |
| 2026-05-06 19:58 | 48.72163 | 1.84030 | 11125 ft | 339 kts | 306° |
| 2026-05-06 19:58 | 48.73522 | 1.81102 | 11913 ft | 340 kts | 308° |
| 2026-05-06 19:58 | 48.75223 | 1.78611 | 12592 ft | 343 kts | 326° |
| 2026-05-06 19:59 | 48.77369 | 1.77050 | 13270 ft | 346 kts | 344° |
| 2026-05-06 19:59 | 48.79766 | 1.76587 | 13961 ft | 349 kts | 2° |
| 2026-05-06 19:59 | 48.82148 | 1.77280 | 14606 ft | 352 kts | 19° |
| 2026-05-06 19:59 | 48.84446 | 1.78659 | 15220 ft | 356 kts | 21° |
| 2026-05-06 20:00 | 48.86729 | 1.80064 | 15843 ft | 360 kts | 21° |
| 2026-05-06 20:00 | 48.89087 | 1.81519 | 16482 ft | 364 kts | 21° |
| 2026-05-06 20:00 | 48.91423 | 1.82957 | 17097 ft | 368 kts | 20° |
| 2026-05-06 20:00 | 48.93809 | 1.84423 | 17718 ft | 372 kts | 20° |
| 2026-05-06 20:01 | 48.96222 | 1.85902 | 18320 ft | 376 kts | 20° |
| 2026-05-06 20:01 | 48.98660 | 1.87396 | 18871 ft | 379 kts | 20° |
| 2026-05-06 20:01 | 49.01148 | 1.88925 | 19442 ft | 382 kts | 20° |
| 2026-05-06 20:01 | 49.03625 | 1.90453 | 20023 ft | 385 kts | 21° |
| 2026-05-06 20:02 | 49.06082 | 1.91973 | 20596 ft | 387 kts | 21° |
| 2026-05-06 20:02 | 49.08594 | 1.93528 | 21159 ft | 391 kts | 21° |
| 2026-05-06 20:02 | 49.11126 | 1.95092 | 21726 ft | 394 kts | 21° |
| 2026-05-06 20:02 | 49.13678 | 1.96664 | 22273 ft | 397 kts | 21° |
| 2026-05-06 20:03 | 49.16246 | 1.98248 | 22820 ft | 400 kts | 21° |
| 2026-05-06 20:03 | 49.18836 | 1.99849 | 23318 ft | 403 kts | 21° |
| 2026-05-06 20:03 | 49.21464 | 2.01537 | 23792 ft | 406 kts | 25° |
| 2026-05-06 20:03 | 49.23872 | 2.03717 | 24209 ft | 410 kts | 35° |
| 2026-05-06 20:04 | 49.26081 | 2.06584 | 24645 ft | 413 kts | 43° |
| 2026-05-06 20:04 | 49.28144 | 2.09587 | 25072 ft | 415 kts | 42° |
| 2026-05-06 20:04 | 49.30249 | 2.12632 | 25469 ft | 418 kts | 42° |
| 2026-05-06 20:04 | 49.32376 | 2.15696 | 25866 ft | 421 kts | 42° |
| 2026-05-06 20:05 | 49.34544 | 2.18813 | 26294 ft | 423 kts | 42° |
| 2026-05-06 20:05 | 49.36666 | 2.21869 | 26704 ft | 425 kts | 42° |
| 2026-05-06 20:05 | 49.38825 | 2.24987 | 27133 ft | 427 kts | 43° |
| 2026-05-06 20:05 | 49.41019 | 2.28162 | 27566 ft | 429 kts | 43° |
| 2026-05-06 20:06 | 49.43196 | 2.31317 | 27905 ft | 431 kts | 43° |
| 2026-05-06 20:06 | 49.45358 | 2.34459 | 27970 ft | 422 kts | 43° |
| 2026-05-06 20:06 | 49.47444 | 2.37504 | 27974 ft | 416 kts | 43° |
| 2026-05-06 20:06 | 49.49559 | 2.40598 | 27990 ft | 414 kts | 43° |
| 2026-05-06 20:07 | 49.51647 | 2.43655 | 27990 ft | 415 kts | 43° |
| 2026-05-06 20:07 | 49.53714 | 2.46680 | 27987 ft | 415 kts | 43° |
| 2026-05-06 20:07 | 49.55954 | 2.49571 | 27982 ft | 415 kts | 34° |
| 2026-05-06 20:07 | 49.58385 | 2.51965 | 27971 ft | 415 kts | 31° |
| 2026-05-06 20:08 | 49.60832 | 2.54317 | 27972 ft | 415 kts | 32° |
| 2026-05-06 20:08 | 49.63282 | 2.56685 | 27966 ft | 415 kts | 32° |
| 2026-05-06 20:08 | 49.65723 | 2.59050 | 27965 ft | 415 kts | 31° |
| 2026-05-06 20:08 | 49.68168 | 2.61425 | 27963 ft | 414 kts | 32° |
| 2026-05-06 20:09 | 49.70606 | 2.63800 | 27961 ft | 414 kts | 32° |
| 2026-05-06 20:09 | 49.73042 | 2.66178 | 27960 ft | 414 kts | 32° |
| 2026-05-06 20:09 | 49.75482 | 2.68559 | 27957 ft | 414 kts | 32° |
| 2026-05-06 20:09 | 49.77924 | 2.70942 | 27957 ft | 415 kts | 32° |
| 2026-05-06 20:10 | 49.79543 | 2.72524 | 27949 ft | 415 kts | 32° |
| 2026-05-06 20:10 | 49.81984 | 2.74911 | 27942 ft | 416 kts | 32° |
| 2026-05-06 20:10 | 49.84429 | 2.77302 | 27941 ft | 416 kts | 32° |
| 2026-05-06 20:10 | 49.86879 | 2.79697 | 27941 ft | 417 kts | 32° |
| 2026-05-06 20:11 | 49.90138 | 2.82884 | 27951 ft | 418 kts | 32° |
| 2026-05-06 20:11 | 49.91774 | 2.84482 | 27948 ft | 418 kts | 32° |
| 2026-05-06 20:11 | 49.94264 | 2.86913 | 27953 ft | 418 kts | 32° |
| 2026-05-06 20:11 | 49.96724 | 2.89323 | 27957 ft | 419 kts | 32° |
| 2026-05-06 20:12 | 49.99190 | 2.91748 | 27954 ft | 419 kts | 32° |
| 2026-05-06 20:12 | 50.01654 | 2.94176 | 27959 ft | 419 kts | 32° |
| 2026-05-06 20:12 | 50.04111 | 2.96601 | 27960 ft | 419 kts | 32° |
| 2026-05-06 20:12 | 50.06569 | 2.99033 | 27961 ft | 419 kts | 32° |
| 2026-05-06 20:13 | 50.09032 | 3.01473 | 27963 ft | 419 kts | 32° |
| 2026-05-06 20:13 | 50.11496 | 3.03915 | 27964 ft | 419 kts | 32° |
| 2026-05-06 20:13 | 50.13959 | 3.06356 | 27966 ft | 419 kts | 32° |
| 2026-05-06 20:13 | 50.16422 | 3.08796 | 27966 ft | 419 kts | 32° |
| 2026-05-06 20:14 | 50.18880 | 3.11235 | 27961 ft | 419 kts | 32° |
| 2026-05-06 20:14 | 50.21340 | 3.13685 | 27959 ft | 419 kts | 32° |
| 2026-05-06 20:14 | 50.23876 | 3.15911 | 27958 ft | 418 kts | 24° |
| 2026-05-06 20:14 | 50.26537 | 3.17767 | 27962 ft | 418 kts | 23° |
| 2026-05-06 20:15 | 50.29195 | 3.19614 | 27961 ft | 418 kts | 24° |
| 2026-05-06 20:15 | 50.31857 | 3.21471 | 27964 ft | 418 kts | 23° |
| 2026-05-06 20:15 | 50.34513 | 3.23335 | 27960 ft | 419 kts | 24° |
| 2026-05-06 20:15 | 50.37175 | 3.25211 | 27957 ft | 419 kts | 24° |
| 2026-05-06 20:16 | 50.39837 | 3.27091 | 27955 ft | 420 kts | 23° |
| 2026-05-06 20:16 | 50.42495 | 3.29015 | 27958 ft | 421 kts | 25° |
| 2026-05-06 20:16 | 50.45104 | 3.31007 | 27962 ft | 421 kts | 26° |
| 2026-05-06 20:16 | 50.47717 | 3.33074 | 27959 ft | 421 kts | 26° |
| 2026-05-06 20:17 | 50.50330 | 3.35172 | 27961 ft | 421 kts | 26° |
| 2026-05-06 20:17 | 50.52950 | 3.37243 | 27961 ft | 421 kts | 25° |
| 2026-05-06 20:17 | 50.55609 | 3.39189 | 27963 ft | 421 kts | 23° |
| 2026-05-06 20:17 | 50.58298 | 3.41036 | 27962 ft | 421 kts | 22° |
| 2026-05-06 20:18 | 50.60998 | 3.42833 | 27971 ft | 421 kts | 22° |
| 2026-05-06 20:18 | 50.63700 | 3.44621 | 27963 ft | 421 kts | 22° |
| 2026-05-06 20:18 | 50.66395 | 3.46427 | 27970 ft | 421 kts | 22° |
| 2026-05-06 20:18 | 50.69123 | 3.48279 | 27970 ft | 421 kts | 22° |
| 2026-05-06 20:19 | 50.71811 | 3.50125 | 27970 ft | 421 kts | 23° |
| 2026-05-06 20:19 | 50.74500 | 3.51984 | 27969 ft | 421 kts | 21° |
| 2026-05-06 20:19 | 50.77297 | 3.53258 | 27932 ft | 418 kts | 9° |
| 2026-05-06 20:19 | 50.80113 | 3.54053 | 27523 ft | 412 kts | 9° |
| 2026-05-06 20:20 | 50.82919 | 3.54807 | 27122 ft | 406 kts | 8° |
| 2026-05-06 20:20 | 50.85693 | 3.55535 | 26728 ft | 402 kts | 8° |
| 2026-05-06 20:20 | 50.88444 | 3.56255 | 26340 ft | 399 kts | 8° |
| 2026-05-06 20:20 | 50.91179 | 3.56979 | 25956 ft | 397 kts | 8° |
| 2026-05-06 20:21 | 50.93932 | 3.57714 | 25557 ft | 395 kts | 8° |
| 2026-05-06 20:21 | 50.96638 | 3.58441 | 25150 ft | 393 kts | 8° |
| 2026-05-06 20:21 | 50.99292 | 3.59154 | 24764 ft | 391 kts | 8° |
| 2026-05-06 20:21 | 51.01967 | 3.59873 | 24382 ft | 389 kts | 8° |
| 2026-05-06 20:22 | 51.04627 | 3.60590 | 24001 ft | 387 kts | 8° |
| 2026-05-06 20:22 | 51.07274 | 3.61307 | 23626 ft | 385 kts | 8° |
| 2026-05-06 20:22 | 51.09903 | 3.62022 | 23176 ft | 383 kts | 8° |
| 2026-05-06 20:22 | 51.12522 | 3.62740 | 22678 ft | 381 kts | 8° |
| 2026-05-06 20:23 | 51.15161 | 3.63465 | 22177 ft | 378 kts | 8° |
| 2026-05-06 20:23 | 51.17707 | 3.64161 | 21875 ft | 374 kts | 8° |
| 2026-05-06 20:23 | 51.20270 | 3.64856 | 21610 ft | 372 kts | 8° |
| 2026-05-06 20:23 | 51.22820 | 3.65533 | 21347 ft | 370 kts | 6° |
| 2026-05-06 20:24 | 51.25380 | 3.65727 | 21098 ft | 367 kts | 357° |
| 2026-05-06 20:24 | 51.27930 | 3.65641 | 20840 ft | 366 kts | 357° |
| 2026-05-06 20:24 | 51.30454 | 3.65557 | 20517 ft | 360 kts | 357° |
| 2026-05-06 20:24 | 51.32949 | 3.65478 | 20088 ft | 357 kts | 357° |
| 2026-05-06 20:25 | 51.35425 | 3.65402 | 19650 ft | 355 kts | 357° |
| 2026-05-06 20:25 | 51.37880 | 3.65327 | 19218 ft | 352 kts | 357° |
| 2026-05-06 20:25 | 51.40324 | 3.65249 | 18778 ft | 350 kts | 357° |
| 2026-05-06 20:25 | 51.42756 | 3.65173 | 18346 ft | 348 kts | 357° |
| 2026-05-06 20:26 | 51.45167 | 3.65101 | 17865 ft | 345 kts | 357° |
| 2026-05-06 20:26 | 51.47563 | 3.65029 | 17430 ft | 341 kts | 357° |
| 2026-05-06 20:26 | 51.49922 | 3.64960 | 17005 ft | 338 kts | 357° |
| 2026-05-06 20:26 | 51.52262 | 3.64887 | 16588 ft | 334 kts | 357° |
| 2026-05-06 20:27 | 51.54577 | 3.64814 | 16162 ft | 331 kts | 357° |
| 2026-05-06 20:27 | 51.56877 | 3.64740 | 15736 ft | 329 kts | 357° |
| 2026-05-06 20:27 | 51.59152 | 3.64671 | 15323 ft | 326 kts | 357° |
| 2026-05-06 20:27 | 51.61414 | 3.64603 | 14904 ft | 323 kts | 357° |
| 2026-05-06 20:28 | 51.63655 | 3.64534 | 14492 ft | 321 kts | 358° |
| 2026-05-06 20:28 | 51.65886 | 3.64466 | 14078 ft | 319 kts | 357° |
| 2026-05-06 20:28 | 51.68100 | 3.64433 | 13658 ft | 318 kts | 2° |
| 2026-05-06 20:28 | 51.70261 | 3.65100 | 13232 ft | 317 kts | 17° |
| 2026-05-06 20:29 | 51.72223 | 3.66674 | 12819 ft | 315 kts | 33° |
| 2026-05-06 20:29 | 51.73836 | 3.68997 | 12408 ft | 315 kts | 49° |
| 2026-05-06 20:29 | 51.75076 | 3.71904 | 11991 ft | 313 kts | 57° |
| 2026-05-06 20:29 | 51.76236 | 3.74868 | 11600 ft | 311 kts | 56° |
| 2026-05-06 20:30 | 51.77391 | 3.77808 | 11195 ft | 309 kts | 57° |
| 2026-05-06 20:30 | 51.79687 | 3.83628 | 10410 ft | 305 kts | 55° |
| 2026-05-06 20:30 | 51.80822 | 3.86509 | 10149 ft | 299 kts | 56° |
| 2026-05-06 20:31 | 51.81923 | 3.89308 | 9902 ft | 292 kts | 56° |
| 2026-05-06 20:31 | 51.83002 | 3.92053 | 9675 ft | 285 kts | 56° |
| 2026-05-06 20:31 | 51.84069 | 3.94775 | 9287 ft | 289 kts | 56° |
| 2026-05-06 20:31 | 51.85136 | 3.97506 | 8706 ft | 282 kts | 57° |
| 2026-05-06 20:32 | 51.86152 | 4.00114 | 8352 ft | 267 kts | 57° |
| 2026-05-06 20:32 | 51.87113 | 4.02582 | 8015 ft | 253 kts | 57° |
| 2026-05-06 20:32 | 51.88030 | 4.04936 | 7677 ft | 241 kts | 57° |
| 2026-05-06 20:32 | 51.88922 | 4.07224 | 7352 ft | 240 kts | 56° |
| 2026-05-06 20:33 | 51.89812 | 4.09502 | 7034 ft | 239 kts | 56° |
| 2026-05-06 20:33 | 51.90712 | 4.11811 | 6704 ft | 239 kts | 56° |
| 2026-05-06 20:33 | 51.91759 | 4.13879 | 6429 ft | 235 kts | 41° |
| 2026-05-06 20:33 | 51.93013 | 4.15554 | 6174 ft | 232 kts | 38° |
| 2026-05-06 20:34 | 51.94272 | 4.17202 | 5908 ft | 232 kts | 38° |
| 2026-05-06 20:34 | 51.95520 | 4.18846 | 5645 ft | 230 kts | 38° |
| 2026-05-06 20:34 | 51.96759 | 4.20481 | 5385 ft | 229 kts | 38° |
| 2026-05-06 20:34 | 51.97990 | 4.22112 | 5119 ft | 227 kts | 38° |
| 2026-05-06 20:35 | 51.99209 | 4.23729 | 4866 ft | 225 kts | 38° |
| 2026-05-06 20:35 | 52.00415 | 4.25329 | 4605 ft | 222 kts | 38° |
| 2026-05-06 20:35 | 52.01612 | 4.26912 | 4338 ft | 222 kts | 38° |
| 2026-05-06 20:35 | 52.02812 | 4.28498 | 4079 ft | 222 kts | 39° |
| 2026-05-06 20:36 | 52.04002 | 4.30072 | 3812 ft | 219 kts | 39° |
| 2026-05-06 20:36 | 52.05178 | 4.31629 | 3549 ft | 217 kts | 39° |
| 2026-05-06 20:36 | 52.06344 | 4.33180 | 3290 ft | 217 kts | 39° |
| 2026-05-06 20:36 | 52.07511 | 4.34731 | 3061 ft | 214 kts | 39° |
| 2026-05-06 20:37 | 52.08734 | 4.36105 | 2996 ft | 215 kts | 23° |
| 2026-05-06 20:37 | 52.10172 | 4.36850 | 2997 ft | 217 kts | 17° |
| 2026-05-06 20:37 | 52.11624 | 4.37452 | 3007 ft | 218 kts | 16° |
| 2026-05-06 20:37 | 52.13114 | 4.38045 | 3010 ft | 216 kts | 15° |
| 2026-05-06 20:38 | 52.14559 | 4.38696 | 3006 ft | 215 kts | 24° |
| 2026-05-06 20:38 | 52.15740 | 4.39985 | 2992 ft | 196 kts | 45° |
| 2026-05-06 20:38 | 52.16494 | 4.41677 | 3014 ft | 181 kts | 57° |
| 2026-05-06 20:38 | 52.17162 | 4.43384 | 3014 ft | 176 kts | 56° |
| 2026-05-06 20:39 | 52.17830 | 4.45091 | 3005 ft | 176 kts | 56° |
| 2026-05-06 20:39 | 52.18483 | 4.46768 | 3002 ft | 175 kts | 57° |
| 2026-05-06 20:39 | 52.19138 | 4.48452 | 2999 ft | 170 kts | 56° |
| 2026-05-06 20:39 | 52.19740 | 4.50001 | 2995 ft | 158 kts | 56° |
| 2026-05-06 20:40 | 52.20322 | 4.51500 | 3005 ft | 155 kts | 57° |
| 2026-05-06 20:40 | 52.20899 | 4.52988 | 2928 ft | 155 kts | 57° |
| 2026-05-06 20:40 | 52.21476 | 4.54475 | 2762 ft | 153 kts | 57° |
| 2026-05-06 20:40 | 52.22045 | 4.55943 | 2567 ft | 153 kts | 57° |
| 2026-05-06 20:41 | 52.22419 | 4.56908 | 2439 ft | 149 kts | 57° |
| 2026-05-06 20:41 | 52.22977 | 4.58350 | 2232 ft | 148 kts | 56° |
| 2026-05-06 20:41 | 52.23513 | 4.59734 | 2038 ft | 142 kts | 56° |
| 2026-05-06 20:41 | 52.24039 | 4.61095 | 1840 ft | 139 kts | 57° |
| 2026-05-06 20:42 | 52.24555 | 4.62430 | 1654 ft | 139 kts | 57° |
| 2026-05-06 20:42 | 52.25068 | 4.63758 | 1456 ft | 138 kts | 57° |
| 2026-05-06 20:42 | 52.25581 | 4.65085 | 1278 ft | 138 kts | 56° |
| 2026-05-06 20:42 | 52.26098 | 4.66423 | 1069 ft | 137 kts | 56° |
| 2026-05-06 20:43 | 52.26608 | 4.67747 | 881 ft | 138 kts | 56° |
| 2026-05-06 20:43 | 52.27120 | 4.69073 | 682 ft | 139 kts | 54° |
| 2026-05-06 20:43 | 52.27644 | 4.70433 | 506 ft | 140 kts | 54° |
| 2026-05-06 20:43 | 52.28171 | 4.71791 | 316 ft | 139 kts | 54° |
| 2026-05-06 20:44 | 52.28716 | 4.73152 | 150 ft | 137 kts | 55° |
| 2026-05-06 20:44 | 52.29193 | 4.74496 | 1 ft | 125 kts | 68° |